createdAt,value
2022-12-03T00:00:26.625Z,101018.88
2022-12-03T00:02:53.084Z,101013.59
2022-12-03T00:05:19.514Z,101016.47
2022-12-03T00:07:46.100Z,101016.59
2022-12-03T00:10:12.869Z,101020.69
2022-12-03T00:12:39.239Z,101011.59
2022-12-03T00:15:08.691Z,101011.97
2022-12-03T00:17:35.117Z,101007.69
2022-12-03T00:20:01.626Z,101007.53
2022-12-03T00:22:27.956Z,100998.53
2022-12-03T00:24:54.642Z,100993.63
2022-12-03T00:27:21.254Z,101002.16
2022-12-03T00:29:47.683Z,101002.72
2022-12-03T00:32:14.123Z,100996.66
2022-12-03T00:34:40.486Z,100994.09
2022-12-03T00:37:06.872Z,100996.72
2022-12-03T00:39:33.208Z,101002.09
2022-12-03T00:41:59.567Z,101001.22
2022-12-03T00:44:26.037Z,101003.00
2022-12-03T00:46:52.404Z,101000.22
2022-12-03T00:49:18.798Z,101000.16
2022-12-03T00:51:45.224Z,100987.09
2022-12-03T00:54:11.797Z,100994.03
2022-12-03T00:56:38.136Z,101000.09
2022-12-03T00:59:04.451Z,100989.81
2022-12-03T01:01:30.900Z,100994.16
2022-12-03T01:03:57.468Z,100985.44
2022-12-03T01:06:57.900Z,100995.81
2022-12-03T01:09:24.226Z,100987.03
2022-12-03T01:11:50.572Z,100997.41
2022-12-03T01:14:19.549Z,100995.66
2022-12-03T01:16:47.295Z,101004.34
2022-12-03T01:19:17.495Z,101003.28
2022-12-03T01:21:45.936Z,101005.91
2022-12-03T01:24:12.600Z,101003.72
2022-12-03T01:26:39.094Z,101000.53
2022-12-03T01:29:05.783Z,101007.78
2022-12-03T01:31:50.604Z,100997.41
2022-12-03T01:34:17.188Z,101010.16
2022-12-03T01:36:43.553Z,101010.47
2022-12-03T01:39:10.171Z,101010.25
2022-12-03T01:41:37.099Z,101011.28
2022-12-03T01:44:12.636Z,101009.50
2022-12-03T01:46:40.554Z,101013.84
2022-12-03T01:49:14.249Z,101014.78
2022-12-03T01:51:40.619Z,101012.91
2022-12-03T01:54:16.623Z,101007.69
2022-12-03T01:56:43.423Z,101009.25
2022-12-03T01:59:15.527Z,101015.31
2022-12-03T02:01:42.150Z,101015.38
2022-12-03T02:04:12.773Z,101014.53
2022-12-03T02:06:39.752Z,101020.59
2022-12-03T02:09:08.654Z,101015.19
2022-12-03T02:11:38.698Z,101017.84
2022-12-03T02:14:11.787Z,101015.00
2022-12-03T02:16:40.945Z,101017.44
2022-12-03T02:19:21.218Z,101021.91
2022-12-03T02:22:03.532Z,101010.16
2022-12-03T02:24:35.563Z,101016.59
2022-12-03T02:27:01.928Z,101018.34
2022-12-03T02:29:28.316Z,101019.63
2022-12-03T02:31:54.835Z,101012.03
2022-12-03T02:34:44.606Z,101016.53
2022-12-03T02:37:15.403Z,101013.19
2022-12-03T02:39:46.304Z,101012.69
2022-12-03T02:42:31.822Z,101012.88
2022-12-03T02:45:05.140Z,101012.03
2022-12-03T02:47:35.239Z,101009.47
2022-12-03T02:50:02.477Z,101008.66
2022-12-03T02:52:29.266Z,101008.59
2022-12-03T02:54:55.992Z,101003.94
2022-12-03T02:57:22.641Z,101005.75
2022-12-03T02:59:49.070Z,100997.09
2022-12-03T03:02:15.548Z,100994.56
2022-12-03T03:04:44.448Z,101001.31
2022-12-03T03:07:11.319Z,101003.69
2022-12-03T03:09:37.798Z,101005.41
2022-12-03T03:12:04.578Z,101004.63
2022-12-03T03:14:32.542Z,101000.13
2022-12-03T03:16:58.966Z,101007.00
2022-12-03T03:19:26.413Z,101002.63
2022-12-03T03:21:53.681Z,101010.00
2022-12-03T03:24:21.611Z,101011.88
2022-12-03T03:26:48.795Z,101004.69
2022-12-03T03:29:15.563Z,101009.25
2022-12-03T03:31:42.955Z,101012.69
2022-12-03T03:34:09.925Z,101010.91
2022-12-03T03:36:36.725Z,101006.50
2022-12-03T03:39:05.533Z,100997.09
2022-12-03T03:41:33.317Z,101004.03
2022-12-03T03:43:59.896Z,101004.63
2022-12-03T03:46:28.371Z,101003.09
2022-12-03T03:48:54.747Z,100998.75
2022-12-03T03:51:21.585Z,100996.78
2022-12-03T03:53:49.895Z,100993.31
2022-12-03T03:56:18.902Z,100988.09
2022-12-03T03:58:45.360Z,100995.63
2022-12-03T04:01:13.833Z,100983.47
2022-12-03T04:03:41.117Z,100988.75
2022-12-03T04:06:08.530Z,100987.06
2022-12-03T04:08:34.954Z,100981.75
2022-12-03T04:11:19.717Z,100973.75
2022-12-03T04:13:46.082Z,100981.03
2022-12-03T04:16:12.473Z,100974.75
2022-12-03T04:18:44.703Z,100978.03
2022-12-03T04:21:38.546Z,100981.75
2022-12-03T04:24:06.494Z,100971.19
2022-12-03T04:26:52.015Z,100960.47
2022-12-03T04:29:19.386Z,100957.19
2022-12-03T04:32:05.212Z,100965.44
2022-12-03T04:34:49.932Z,100965.28
2022-12-03T04:37:16.721Z,100955.19
2022-12-03T04:39:43.070Z,100967.06
2022-12-03T04:42:09.477Z,100973.69
2022-12-03T04:44:38.503Z,100973.84
2022-12-03T04:47:09.406Z,100974.88
2022-12-03T04:49:38.711Z,100968.81
2022-12-03T04:52:05.462Z,100958.22
2022-12-03T04:54:31.812Z,100972.31
2022-12-03T04:56:58.273Z,100974.88
2022-12-03T04:59:24.674Z,100959.31
2022-12-03T05:01:51.086Z,100967.03
2022-12-03T05:04:17.554Z,100964.19
2022-12-03T05:06:44.400Z,100965.97
2022-12-03T05:09:11.993Z,100975.69
2022-12-03T05:11:38.617Z,100975.69
2022-12-03T05:14:05.460Z,100966.94
2022-12-03T05:16:31.989Z,100969.88
2022-12-03T05:18:58.399Z,100967.75
2022-12-03T05:21:24.767Z,100965.38
2022-12-03T05:23:51.122Z,100973.16
2022-12-03T05:26:17.459Z,100979.22
2022-12-03T05:28:44.191Z,100972.75
2022-12-03T05:31:10.890Z,100968.53
2022-12-03T05:33:42.482Z,100966.09
2022-12-03T05:36:10.786Z,100960.31
2022-12-03T05:38:37.163Z,100968.63
2022-12-03T05:41:23.822Z,100964.91
2022-12-03T05:43:50.187Z,100969.59
2022-12-03T05:46:16.625Z,100974.75
2022-12-03T05:48:43.027Z,100972.84
2022-12-03T05:51:09.373Z,100974.94
2022-12-03T05:53:35.920Z,100968.88
2022-12-03T05:56:02.241Z,100975.94
2022-12-03T05:58:28.629Z,100975.69
2022-12-03T06:00:55.246Z,100975.47
2022-12-03T06:03:21.676Z,100972.16
2022-12-03T06:05:48.099Z,100967.88
2022-12-03T06:08:14.532Z,100968.03
2022-12-03T06:10:40.961Z,100971.59
2022-12-03T06:13:07.258Z,100964.72
2022-12-03T06:15:37.446Z,100969.13
2022-12-03T06:18:06.678Z,100969.88
2022-12-03T06:20:33.053Z,100964.63
2022-12-03T06:22:59.427Z,100959.03
2022-12-03T06:25:25.813Z,100950.44
2022-12-03T06:27:52.142Z,100959.31
2022-12-03T06:30:18.513Z,100954.28
2022-12-03T06:32:44.814Z,100961.13
2022-12-03T06:35:11.375Z,100962.84
2022-12-03T06:37:37.686Z,100952.34
2022-12-03T06:40:04.391Z,100948.84
2022-12-03T06:42:30.709Z,100948.22
2022-12-03T06:44:57.285Z,100954.47
2022-12-03T06:47:23.778Z,100954.47
2022-12-03T06:49:50.147Z,100950.03
2022-12-03T06:52:16.503Z,100943.44
2022-12-03T06:54:42.861Z,100948.06
2022-12-03T06:57:09.177Z,100953.50
2022-12-03T06:59:37.437Z,100950.03
2022-12-03T07:02:04.650Z,100956.13
2022-12-03T07:04:31.044Z,100940.72
2022-12-03T07:06:57.481Z,100946.53
2022-12-03T07:09:23.850Z,100956.31
2022-12-03T07:11:50.165Z,100953.75
2022-12-03T07:14:16.483Z,100961.28
2022-12-03T07:16:43.687Z,100965.00
2022-12-03T07:19:11.129Z,100971.13
2022-12-03T07:21:38.026Z,100964.84
2022-12-03T07:24:04.663Z,100968.41
2022-12-03T07:26:31.103Z,100972.84
2022-12-03T07:28:58.214Z,100966.81
2022-12-03T07:31:24.819Z,100968.41
2022-12-03T07:33:51.324Z,100972.78
2022-12-03T07:36:17.761Z,100969.28
2022-12-03T07:38:44.603Z,100967.03
2022-12-03T07:41:11.019Z,100953.53
2022-12-03T07:43:37.366Z,100966.63
2022-12-03T07:46:03.707Z,100962.00
2022-12-03T07:48:30.026Z,100957.56
2022-12-03T07:50:56.458Z,100956.59
2022-12-03T07:53:22.844Z,100958.69
2022-12-03T07:55:49.211Z,100948.59
2022-12-03T07:58:15.542Z,100955.72
2022-12-03T08:00:41.968Z,100945.03
2022-12-03T08:03:12.283Z,100951.38
2022-12-03T08:05:38.657Z,100960.41
2022-12-03T08:08:05.337Z,100958.22
2022-12-03T08:10:31.929Z,100958.31
2022-12-03T08:12:59.962Z,100966.88
2022-12-03T08:15:33.658Z,100971.66
2022-12-03T08:18:12.277Z,100964.53
2022-12-03T08:20:40.853Z,100970.44
2022-12-03T08:23:13.459Z,100966.03
2022-12-03T08:25:40.003Z,100971.13
2022-12-03T08:28:15.990Z,100972.13
2022-12-03T08:30:43.736Z,100964.19
2022-12-03T08:33:30.952Z,100966.44
2022-12-03T08:35:57.276Z,100962.19
2022-12-03T08:38:24.882Z,100957.69
2022-12-03T08:40:55.120Z,100968.78
2022-12-03T08:43:27.834Z,100951.34
2022-12-03T08:45:55.939Z,100968.75
2022-12-03T08:48:32.621Z,100968.75
2022-12-03T08:51:18.888Z,100964.16
2022-12-03T08:53:48.925Z,100961.59
2022-12-03T08:56:24.303Z,100963.59
2022-12-03T08:59:15.481Z,100959.66
2022-12-03T09:01:44.324Z,100972.69
2022-12-03T09:04:21.384Z,100975.25
2022-12-03T09:06:47.942Z,100958.59
2022-12-03T09:09:15.631Z,100965.56
2022-12-03T09:11:43.172Z,100969.13
2022-12-03T09:14:15.120Z,100975.63
2022-12-03T09:16:44.713Z,100968.28
2022-12-03T09:19:11.180Z,100962.53
2022-12-03T09:21:37.522Z,100961.97
2022-12-03T09:24:03.943Z,100968.13
2022-12-03T09:26:30.307Z,100962.47
2022-12-03T09:28:56.643Z,100959.41
2022-12-03T09:31:22.974Z,100958.72
2022-12-03T09:33:49.445Z,100951.19
2022-12-03T09:36:15.815Z,100942.63
2022-12-03T09:38:46.238Z,100957.25
2022-12-03T09:41:14.446Z,100937.75
2022-12-03T09:44:03.355Z,100944.97
2022-12-03T09:46:27.452Z,100930.94
2022-12-03T09:48:55.353Z,100919.28
2022-12-03T09:51:21.678Z,100933.81
2022-12-03T09:53:48.385Z,100935.38
2022-12-03T09:56:23.188Z,100933.06
2022-12-03T09:58:50.454Z,100924.22
2022-12-03T10:01:17.523Z,100926.88
2022-12-03T10:03:47.689Z,100912.22
2022-12-03T10:06:17.871Z,100916.09
2022-12-03T10:08:48.246Z,100918.59
2022-12-03T10:11:15.738Z,100922.81
2022-12-03T10:13:42.310Z,100929.81
2022-12-03T10:16:15.284Z,100933.09
2022-12-03T10:18:48.337Z,100918.09
2022-12-03T10:21:24.232Z,100909.72
2022-12-03T10:24:39.750Z,100912.78
2022-12-03T10:27:30.085Z,100906.56
2022-12-03T10:29:59.512Z,100906.59
2022-12-03T10:32:44.341Z,100893.63
2022-12-03T10:35:13.898Z,100907.09
2022-12-03T10:37:59.180Z,100899.22
2022-12-03T10:40:31.173Z,100890.72
2022-12-03T10:43:35.675Z,100892.22
2022-12-03T10:46:04.039Z,100885.22
2022-12-03T10:48:30.942Z,100893.06
2022-12-03T10:51:04.754Z,100889.66
2022-12-03T10:53:33.802Z,100886.91
2022-12-03T10:56:03.100Z,100880.00
2022-12-03T10:58:33.902Z,100868.63
2022-12-03T11:01:03.382Z,100874.63
2022-12-03T11:03:34.589Z,100873.75
2022-12-03T11:06:02.314Z,100869.41
2022-12-03T11:08:35.232Z,100870.00
2022-12-03T11:11:03.343Z,100874.31
2022-12-03T11:13:32.360Z,100866.84
2022-12-03T11:16:00.656Z,100860.69
2022-12-03T11:18:36.084Z,100856.00
2022-12-03T11:21:14.052Z,100863.63
2022-12-03T11:23:46.307Z,100856.47
2022-12-03T11:26:18.946Z,100856.47
2022-12-03T11:28:45.712Z,100860.03
2022-12-03T11:31:38.100Z,100855.84
2022-12-03T11:34:13.444Z,100859.88
2022-12-03T11:37:11.574Z,100850.22
2022-12-03T11:39:55.549Z,100852.66
2022-12-03T11:42:27.894Z,100841.97
2022-12-03T11:45:06.684Z,100841.19
2022-12-03T11:47:44.086Z,100834.25
2022-12-03T11:50:23.426Z,100825.22
2022-12-03T11:52:59.167Z,100825.22
2022-12-03T11:55:30.232Z,100831.66
2022-12-03T11:57:59.265Z,100826.38
2022-12-03T12:00:25.743Z,100816.25
2022-12-03T12:02:54.709Z,100815.25
2022-12-03T12:05:28.198Z,100814.69
2022-12-03T12:07:55.488Z,100802.91
2022-12-03T12:10:47.709Z,100809.53
2022-12-03T12:13:32.197Z,100815.16
2022-12-03T12:16:04.070Z,100801.91
2022-12-03T12:18:45.168Z,100807.69
2022-12-03T12:21:41.915Z,100812.53
2022-12-03T12:24:31.442Z,100806.19
2022-12-03T12:27:00.231Z,100797.38
2022-12-03T12:29:26.725Z,100789.63
2022-12-03T12:32:00.765Z,100792.41
2022-12-03T12:34:27.267Z,100801.53
2022-12-03T12:36:56.642Z,100788.31
2022-12-03T12:39:23.101Z,100789.91
2022-12-03T12:41:50.433Z,100783.00
2022-12-03T12:44:18.226Z,100785.88
2022-12-03T12:46:47.995Z,100784.44
2022-12-03T12:49:15.490Z,100784.22
2022-12-03T12:51:46.576Z,100783.28
2022-12-03T12:54:15.511Z,100785.31
2022-12-03T12:56:47.047Z,100787.19
2022-12-03T12:59:21.867Z,100785.56
2022-12-03T13:01:49.939Z,100779.63
2022-12-03T13:04:23.793Z,100789.91
2022-12-03T13:06:53.065Z,100783.84
2022-12-03T13:09:26.519Z,100783.91
2022-12-03T13:12:00.205Z,100791.72
2022-12-03T13:14:31.883Z,100786.03
2022-12-03T13:17:00.851Z,100781.03
2022-12-03T13:19:39.584Z,100780.88
2022-12-03T13:22:15.740Z,100780.88
2022-12-03T13:24:50.959Z,100781.03
2022-12-03T13:27:17.246Z,100779.88
2022-12-03T13:29:45.062Z,100777.28
2022-12-03T13:32:15.819Z,100781.72
2022-12-03T13:34:42.612Z,100768.91
2022-12-03T13:37:27.890Z,100769.94
2022-12-03T13:39:58.044Z,100764.28
2022-12-03T13:42:40.837Z,100769.66
2022-12-03T13:45:16.045Z,100764.19
2022-12-03T13:47:48.719Z,100764.81
2022-12-03T13:50:20.994Z,100756.25
2022-12-03T13:52:47.755Z,100756.56
2022-12-03T13:55:26.399Z,100753.91
2022-12-03T13:57:53.566Z,100750.19
2022-12-03T14:00:20.254Z,100746.69
2022-12-03T14:02:46.720Z,100743.59
2022-12-03T14:05:13.401Z,100744.34
2022-12-03T14:07:39.968Z,100747.94
2022-12-03T14:10:08.215Z,100754.94
2022-12-03T14:12:34.914Z,100760.31
2022-12-03T14:15:02.344Z,100752.47
2022-12-03T14:17:30.685Z,100743.72
2022-12-03T14:20:01.308Z,100742.88
2022-12-03T14:22:27.866Z,100748.16
2022-12-03T14:24:54.392Z,100752.69
2022-12-03T14:27:21.951Z,100744.75
2022-12-03T14:29:48.402Z,100748.50
2022-12-03T14:32:14.850Z,100748.66
2022-12-03T14:34:41.250Z,100752.22
2022-12-03T14:37:07.647Z,100748.34
2022-12-03T14:39:34.001Z,100750.22
2022-12-03T14:42:16.427Z,100740.56
2022-12-03T14:44:45.776Z,100743.13
2022-12-03T14:47:13.413Z,100743.28
2022-12-03T14:49:39.922Z,100744.16
2022-12-03T14:52:11.362Z,100738.91
2022-12-03T14:54:42.686Z,100742.41
2022-12-03T14:57:11.519Z,100750.22
2022-12-03T14:59:38.862Z,100756.59
2022-12-03T15:02:05.234Z,100750.53
2022-12-03T15:04:31.619Z,100750.53
2022-12-03T15:06:57.931Z,100748.03
2022-12-03T15:09:24.237Z,100753.34
2022-12-03T15:11:50.579Z,100755.22
2022-12-03T15:14:16.974Z,100749.50
2022-12-03T15:16:43.398Z,100762.06
2022-12-03T15:19:10.028Z,100754.13
2022-12-03T15:21:36.350Z,100755.13
2022-12-03T15:24:03.155Z,100762.13
2022-12-03T15:26:29.910Z,100767.34
2022-12-03T15:28:56.306Z,100763.16
2022-12-03T15:31:22.710Z,100763.94
2022-12-03T15:33:49.227Z,100760.56
2022-12-03T15:36:16.699Z,100759.72
2022-12-03T15:38:43.066Z,100758.72
2022-12-03T15:41:23.198Z,100756.22
2022-12-03T15:43:51.319Z,100756.84
2022-12-03T15:46:17.822Z,100753.44
2022-12-03T15:48:44.312Z,100760.66
2022-12-03T15:51:10.674Z,100752.72
2022-12-03T15:53:37.032Z,100749.38
2022-12-03T15:56:03.590Z,100756.13
2022-12-03T15:58:29.959Z,100765.19
2022-12-03T16:00:56.321Z,100761.59
2022-12-03T16:03:22.709Z,100762.44
2022-12-03T16:05:49.764Z,100756.56
2022-12-03T16:08:16.224Z,100757.22
2022-12-03T16:10:42.628Z,100759.72
2022-12-03T16:13:09.011Z,100757.16
2022-12-03T16:15:35.404Z,100764.25
2022-12-03T16:18:02.699Z,100772.00
2022-12-03T16:20:29.030Z,100760.75
2022-12-03T16:22:55.379Z,100756.22
2022-12-03T16:25:21.871Z,100761.44
2022-12-03T16:27:48.335Z,100758.63
2022-12-03T16:30:14.860Z,100751.47
2022-12-03T16:32:41.663Z,100748.81
2022-12-03T16:35:08.486Z,100748.03
2022-12-03T16:37:34.885Z,100755.13
2022-12-03T16:40:01.452Z,100744.63
2022-12-03T16:42:27.969Z,100738.22
2022-12-03T16:45:11.855Z,100749.22
2022-12-03T16:47:38.305Z,100754.34
2022-12-03T16:50:07.610Z,100752.72
2022-12-03T16:52:34.859Z,100748.81
2022-12-03T16:55:01.573Z,100735.66
2022-12-03T16:57:33.341Z,100749.28
2022-12-03T17:00:00.691Z,100745.31
2022-12-03T17:02:27.427Z,100747.41
2022-12-03T17:04:53.884Z,100727.72
2022-12-03T17:07:20.393Z,100733.63
2022-12-03T17:09:46.720Z,100727.72
2022-12-03T17:12:13.147Z,100735.28
2022-12-03T17:14:39.576Z,100740.72
2022-12-03T17:17:05.918Z,100739.63
2022-12-03T17:19:32.315Z,100731.63
2022-12-03T17:21:59.645Z,100742.13
2022-12-03T17:24:26.036Z,100735.19
2022-12-03T17:26:52.454Z,100735.50
2022-12-03T17:29:18.773Z,100736.66
2022-12-03T17:31:45.224Z,100737.47
2022-12-03T17:34:11.700Z,100726.06
2022-12-03T17:36:38.122Z,100732.19
2022-12-03T17:39:04.464Z,100734.97
2022-12-03T17:41:30.883Z,100722.84
2022-12-03T17:43:57.242Z,100729.81
2022-12-03T17:46:23.656Z,100722.19
2022-12-03T17:48:50.264Z,100724.38
2022-12-03T17:51:16.739Z,100723.59
2022-12-03T17:53:43.100Z,100730.78
2022-12-03T17:56:09.603Z,100714.88
2022-12-03T17:58:36.086Z,100715.19
2022-12-03T18:01:03.350Z,100719.47
2022-12-03T18:03:30.829Z,100721.13
2022-12-03T18:05:57.273Z,100714.34
2022-12-03T18:08:23.721Z,100726.50
2022-12-03T18:10:50.176Z,100714.44
2022-12-03T18:13:16.562Z,100714.88
2022-12-03T18:15:43.008Z,100717.53
2022-12-03T18:18:09.462Z,100719.31
2022-12-03T18:20:36.287Z,100719.56
2022-12-03T18:23:03.373Z,100723.00
2022-12-03T18:25:30.378Z,100722.28
2022-12-03T18:27:56.964Z,100716.13
2022-12-03T18:30:23.499Z,100706.66
2022-12-03T18:32:50.550Z,100709.03
2022-12-03T18:35:17.034Z,100710.91
2022-12-03T18:37:43.699Z,100708.38
2022-12-03T18:40:20.004Z,100705.31
2022-12-03T18:42:47.083Z,100705.25
2022-12-03T18:45:15.217Z,100704.59
2022-12-03T18:47:42.231Z,100705.63
2022-12-03T18:50:09.805Z,100701.34
2022-12-03T18:52:36.411Z,100701.81
2022-12-03T18:55:04.201Z,100702.72
2022-12-03T18:57:30.574Z,100704.59
2022-12-03T18:59:57.232Z,100706.31
2022-12-03T19:02:54.347Z,100701.09
2022-12-03T19:05:10.693Z,100705.47
2022-12-03T19:07:37.249Z,100704.31
2022-12-03T19:10:04.271Z,100697.44
2022-12-03T19:12:31.095Z,100700.88
2022-12-03T19:14:57.475Z,100694.19
2022-12-03T19:17:23.932Z,100693.09
2022-12-03T19:19:50.338Z,100691.06
2022-12-03T19:22:16.767Z,100682.66
2022-12-03T19:24:43.603Z,100688.03
2022-12-03T19:27:10.120Z,100692.16
2022-12-03T19:29:36.574Z,100695.13
2022-12-03T19:32:03.391Z,100684.53
2022-12-03T19:34:29.926Z,100692.41
2022-12-03T19:36:56.334Z,100677.59
2022-12-03T19:39:22.711Z,100679.34
2022-12-03T19:41:49.217Z,100682.84
2022-12-03T19:44:17.415Z,100688.91
2022-12-03T19:46:44.591Z,100687.19
2022-12-03T19:49:11.735Z,100675.34
2022-12-03T19:51:38.108Z,100687.03
2022-12-03T19:54:06.514Z,100679.16
2022-12-03T19:56:33.443Z,100685.50
2022-12-03T19:58:59.897Z,100677.84
2022-12-03T20:01:30.031Z,100668.31
2022-12-03T20:03:58.481Z,100678.06
2022-12-03T20:06:28.450Z,100670.38
2022-12-03T20:09:02.667Z,100679.72
2022-12-03T20:11:31.825Z,100680.69
2022-12-03T20:14:01.450Z,100679.94
2022-12-03T20:16:29.256Z,100682.34
2022-12-03T20:18:58.665Z,100682.34
2022-12-03T20:21:25.908Z,100685.00
2022-12-03T20:23:52.990Z,100688.41
2022-12-03T20:26:20.761Z,100689.44
2022-12-03T20:28:48.121Z,100696.53
2022-12-03T20:31:20.230Z,100692.16
2022-12-03T20:33:49.287Z,100685.06
2022-12-03T20:36:18.886Z,100672.63
2022-12-03T20:38:45.311Z,100676.88
2022-12-03T20:41:14.144Z,100675.94
2022-12-03T20:43:41.367Z,100682.94
2022-12-03T20:46:08.650Z,100675.88
2022-12-03T20:48:35.694Z,100671.50
2022-12-03T20:51:10.578Z,100673.56
2022-12-03T20:53:37.805Z,100680.47
2022-12-03T20:56:05.608Z,100673.31
2022-12-03T20:58:32.922Z,100665.53
2022-12-03T21:01:15.193Z,100667.94
2022-12-03T21:03:42.258Z,100659.75
2022-12-03T21:06:08.646Z,100662.50
2022-12-03T21:08:41.692Z,100653.75
2022-12-03T21:11:20.921Z,100660.06
2022-12-03T21:13:47.699Z,100652.75
2022-12-03T21:16:18.078Z,100643.97
2022-12-03T21:18:45.004Z,100653.69
2022-12-03T21:21:12.933Z,100653.69
2022-12-03T21:23:39.500Z,100647.59
2022-12-03T21:26:08.618Z,100654.56
2022-12-03T21:28:35.345Z,100646.16
2022-12-03T21:31:03.647Z,100645.13
2022-12-03T21:33:30.661Z,100657.19
2022-12-03T21:35:57.488Z,100650.03
2022-12-03T21:38:24.359Z,100652.75
2022-12-03T21:40:50.868Z,100649.31
2022-12-03T21:43:17.242Z,100655.16
2022-12-03T21:45:43.900Z,100651.81
2022-12-03T21:48:11.105Z,100652.75
2022-12-03T21:50:37.513Z,100649.31
2022-12-03T21:53:03.818Z,100653.84
2022-12-03T21:55:30.249Z,100651.06
2022-12-03T21:57:56.631Z,100646.91
2022-12-03T22:00:23.026Z,100649.41
2022-12-03T22:02:49.401Z,100649.09
2022-12-03T22:05:15.929Z,100645.91
2022-12-03T22:07:42.333Z,100655.50
2022-12-03T22:10:10.426Z,100645.22
2022-12-03T22:12:36.993Z,100650.25
2022-12-03T22:15:05.040Z,100651.19
2022-12-03T22:17:31.607Z,100652.03
2022-12-03T22:19:57.999Z,100655.50
2022-12-03T22:22:24.398Z,100647.78
2022-12-03T22:24:50.770Z,100648.72
2022-12-03T22:27:18.078Z,100651.44
2022-12-03T22:29:45.446Z,100651.38
2022-12-03T22:32:11.833Z,100649.66
2022-12-03T22:34:38.215Z,100649.47
2022-12-03T22:37:04.954Z,100639.22
2022-12-03T22:39:31.410Z,100634.44
2022-12-03T22:41:57.811Z,100636.03
2022-12-03T22:44:24.163Z,100636.16
2022-12-03T22:46:50.610Z,100630.19
2022-12-03T22:49:17.039Z,100642.66
2022-12-03T22:51:47.419Z,100639.22
2022-12-03T22:54:15.001Z,100636.50
2022-12-03T22:56:42.666Z,100629.47
2022-12-03T22:59:09.146Z,100627.72
2022-12-03T23:01:39.113Z,100626.78
2022-12-03T23:04:06.945Z,100624.19
2022-12-03T23:06:34.586Z,100620.44
2022-12-03T23:09:00.993Z,100621.47
2022-12-03T23:11:27.839Z,100620.69
2022-12-03T23:13:54.311Z,100615.38
2022-12-03T23:16:23.961Z,100622.41
2022-12-03T23:18:50.448Z,100613.59
2022-12-03T23:21:24.007Z,100614.63
2022-12-03T23:23:55.145Z,100614.53
2022-12-03T23:26:22.527Z,100605.59
2022-12-03T23:28:48.930Z,100612.91
2022-12-03T23:31:20.181Z,100600.63
2022-12-03T23:33:47.071Z,100608.47
2022-12-03T23:36:13.798Z,100594.38
2022-12-03T23:38:40.683Z,100591.81
2022-12-03T23:41:11.032Z,100584.91
2022-12-03T23:43:38.401Z,100576.34
2022-12-03T23:46:17.165Z,100581.41
2022-12-03T23:48:43.736Z,100572.97
2022-12-03T23:51:12.476Z,100570.75
2022-12-03T23:53:39.995Z,100572.44
2022-12-03T23:56:15.952Z,100565.44
2022-12-03T23:58:43.299Z,100566.31
